sensor_id;sensor_type;location;lat;lon;timestamp;temperature;humidity
24326;DHT22;12448;45.532;5.290;2022-10-26T00:01:10;17.80;90.90
24326;DHT22;12448;45.532;5.290;2022-10-26T00:03:38;17.80;90.80
24326;DHT22;12448;45.532;5.290;2022-10-26T00:06:33;17.80;90.90
24326;DHT22;12448;45.532;5.290;2022-10-26T00:09:01;17.70;90.80
24326;DHT22;12448;45.532;5.290;2022-10-26T00:11:27;17.50;91.10
24326;DHT22;12448;45.532;5.290;2022-10-26T00:13:53;17.50;90.90
24326;DHT22;12448;45.532;5.290;2022-10-26T00:16:26;17.40;91.00
24326;DHT22;12448;45.532;5.290;2022-10-26T00:18:52;17.40;91.00
24326;DHT22;12448;45.532;5.290;2022-10-26T00:21:17;17.40;91.10
24326;DHT22;12448;45.532;5.290;2022-10-26T00:23:43;17.40;91.00
24326;DHT22;12448;45.532;5.290;2022-10-26T00:26:09;17.50;90.90
24326;DHT22;12448;45.532;5.290;2022-10-26T00:28:35;17.60;90.80
24326;DHT22;12448;45.532;5.290;2022-10-26T00:31:08;17.60;90.70
24326;DHT22;12448;45.532;5.290;2022-10-26T00:33:36;17.70;90.70
24326;DHT22;12448;45.532;5.290;2022-10-26T00:36:02;17.70;90.60
24326;DHT22;12448;45.532;5.290;2022-10-26T00:38:33;17.80;90.60
24326;DHT22;12448;45.532;5.290;2022-10-26T00:40:59;17.80;90.60
24326;DHT22;12448;45.532;5.290;2022-10-26T00:45:54;17.80;90.50
24326;DHT22;12448;45.532;5.290;2022-10-26T00:48:28;17.80;90.50
24326;DHT22;12448;45.532;5.290;2022-10-26T00:50:55;17.80;90.40
24326;DHT22;12448;45.532;5.290;2022-10-26T00:53:26;17.90;90.50
24326;DHT22;12448;45.532;5.290;2022-10-26T00:55:52;17.90;90.40
24326;DHT22;12448;45.532;5.290;2022-10-26T00:58:24;17.90;90.40
24326;DHT22;12448;45.532;5.290;2022-10-26T01:00:54;17.90;90.50
24326;DHT22;12448;45.532;5.290;2022-10-26T01:03:21;17.80;90.40
24326;DHT22;12448;45.532;5.290;2022-10-26T01:05:51;17.80;90.50
24326;DHT22;12448;45.532;5.290;2022-10-26T01:08:18;17.80;90.50
24326;DHT22;12448;45.532;5.290;2022-10-26T01:10:44;17.80;90.60
24326;DHT22;12448;45.532;5.290;2022-10-26T01:13:10;17.70;90.60
24326;DHT22;12448;45.532;5.290;2022-10-26T01:29:23;17.70;91.00
24326;DHT22;12448;45.532;5.290;2022-10-26T01:32:02;17.60;90.90
24326;DHT22;12448;45.532;5.290;2022-10-26T01:34:44;17.70;91.00
24326;DHT22;12448;45.532;5.290;2022-10-26T01:37:18;17.60;90.90
24326;DHT22;12448;45.532;5.290;2022-10-26T01:40:09;17.60;90.90
24326;DHT22;12448;45.532;5.290;2022-10-26T01:42:41;17.70;90.90
24326;DHT22;12448;45.532;5.290;2022-10-26T01:45:11;17.70;90.90
24326;DHT22;12448;45.532;5.290;2022-10-26T01:47:39;17.60;90.90
24326;DHT22;12448;45.532;5.290;2022-10-26T01:50:06;17.60;90.90
24326;DHT22;12448;45.532;5.290;2022-10-26T01:52:33;17.70;90.80
24326;DHT22;12448;45.532;5.290;2022-10-26T02:04:16;17.70;90.70
24326;DHT22;12448;45.532;5.290;2022-10-26T02:12:14;17.70;90.70
24326;DHT22;12448;45.532;5.290;2022-10-26T02:14:57;17.70;90.70
24326;DHT22;12448;45.532;5.290;2022-10-26T02:17:31;17.70;90.80
24326;DHT22;12448;45.532;5.290;2022-10-26T02:20:02;17.70;91.00
24326;DHT22;12448;45.532;5.290;2022-10-26T02:22:43;17.60;91.10
24326;DHT22;12448;45.532;5.290;2022-10-26T02:25:17;17.60;91.20
24326;DHT22;12448;45.532;5.290;2022-10-26T02:27:49;17.60;91.30
24326;DHT22;12448;45.532;5.290;2022-10-26T02:30:16;17.60;91.30
24326;DHT22;12448;45.532;5.290;2022-10-26T02:32:48;17.60;91.30
24326;DHT22;12448;45.532;5.290;2022-10-26T02:35:16;17.70;91.20
24326;DHT22;12448;45.532;5.290;2022-10-26T02:37:45;17.60;91.20
24326;DHT22;12448;45.532;5.290;2022-10-26T02:40:14;17.70;91.20
24326;DHT22;12448;45.532;5.290;2022-10-26T02:42:43;17.70;91.20
24326;DHT22;12448;45.532;5.290;2022-10-26T02:45:12;17.70;91.10
24326;DHT22;12448;45.532;5.290;2022-10-26T02:47:40;17.60;91.10
24326;DHT22;12448;45.532;5.290;2022-10-26T02:50:06;17.70;91.40
24326;DHT22;12448;45.532;5.290;2022-10-26T02:53:25;17.70;91.00
24326;DHT22;12448;45.532;5.290;2022-10-26T02:55:47;17.70;90.80
24326;DHT22;12448;45.532;5.290;2022-10-26T02:58:26;17.60;90.90
24326;DHT22;12448;45.532;5.290;2022-10-26T03:00:54;17.70;90.80
24326;DHT22;12448;45.532;5.290;2022-10-26T03:03:20;17.60;90.90
24326;DHT22;12448;45.532;5.290;2022-10-26T03:05:46;17.60;90.90
24326;DHT22;12448;45.532;5.290;2022-10-26T03:08:11;17.60;90.70
24326;DHT22;12448;45.532;5.290;2022-10-26T03:10:42;17.60;90.70
24326;DHT22;12448;45.532;5.290;2022-10-26T03:13:09;17.60;90.60
24326;DHT22;12448;45.532;5.290;2022-10-26T03:15:35;17.60;90.50
24326;DHT22;12448;45.532;5.290;2022-10-26T03:18:01;17.70;90.40
24326;DHT22;12448;45.532;5.290;2022-10-26T03:20:27;17.70;90.30
24326;DHT22;12448;45.532;5.290;2022-10-26T03:22:53;17.70;90.30
24326;DHT22;12448;45.532;5.290;2022-10-26T03:25:18;17.70;90.30
24326;DHT22;12448;45.532;5.290;2022-10-26T03:27:44;17.80;90.20
24326;DHT22;12448;45.532;5.290;2022-10-26T03:30:10;17.80;90.10
24326;DHT22;12448;45.532;5.290;2022-10-26T03:32:36;17.80;89.90
24326;DHT22;12448;45.532;5.290;2022-10-26T03:35:02;17.70;89.70
24326;DHT22;12448;45.532;5.290;2022-10-26T03:37:28;17.80;89.80
24326;DHT22;12448;45.532;5.290;2022-10-26T03:39:53;17.80;89.60
24326;DHT22;12448;45.532;5.290;2022-10-26T03:42:19;17.80;89.30
24326;DHT22;12448;45.532;5.290;2022-10-26T03:44:45;17.80;89.10
24326;DHT22;12448;45.532;5.290;2022-10-26T03:47:11;17.70;88.90
24326;DHT22;12448;45.532;5.290;2022-10-26T03:49:37;17.70;88.70
24326;DHT22;12448;45.532;5.290;2022-10-26T03:52:03;17.70;88.60
24326;DHT22;12448;45.532;5.290;2022-10-26T03:54:28;17.80;88.30
24326;DHT22;12448;45.532;5.290;2022-10-26T03:56:54;17.70;88.30
24326;DHT22;12448;45.532;5.290;2022-10-26T03:59:21;17.70;88.20
24326;DHT22;12448;45.532;5.290;2022-10-26T04:01:46;17.70;88.30
24326;DHT22;12448;45.532;5.290;2022-10-26T04:04:12;17.70;88.30
24326;DHT22;12448;45.532;5.290;2022-10-26T04:06:37;17.70;88.50
24326;DHT22;12448;45.532;5.290;2022-10-26T04:09:03;17.70;88.60
24326;DHT22;12448;45.532;5.290;2022-10-26T04:11:29;17.80;88.60
24326;DHT22;12448;45.532;5.290;2022-10-26T04:13:55;17.70;88.50
24326;DHT22;12448;45.532;5.290;2022-10-26T04:16:24;17.70;88.60
24326;DHT22;12448;45.532;5.290;2022-10-26T04:18:50;17.70;88.70
24326;DHT22;12448;45.532;5.290;2022-10-26T04:21:15;17.70;88.60
24326;DHT22;12448;45.532;5.290;2022-10-26T04:23:41;17.70;88.50
24326;DHT22;12448;45.532;5.290;2022-10-26T04:26:07;17.70;88.40
24326;DHT22;12448;45.532;5.290;2022-10-26T04:28:33;17.70;88.40
24326;DHT22;12448;45.532;5.290;2022-10-26T04:30:58;17.70;88.40
24326;DHT22;12448;45.532;5.290;2022-10-26T04:33:24;17.70;88.40
24326;DHT22;12448;45.532;5.290;2022-10-26T04:35:50;17.70;88.40
24326;DHT22;12448;45.532;5.290;2022-10-26T04:38:15;17.70;88.40
24326;DHT22;12448;45.532;5.290;2022-10-26T04:40:41;17.70;88.50
24326;DHT22;12448;45.532;5.290;2022-10-26T04:43:07;17.60;88.50
24326;DHT22;12448;45.532;5.290;2022-10-26T04:45:33;17.60;88.50
24326;DHT22;12448;45.532;5.290;2022-10-26T04:48:15;17.60;88.50
24326;DHT22;12448;45.532;5.290;2022-10-26T04:50:41;17.70;88.50
24326;DHT22;12448;45.532;5.290;2022-10-26T04:53:08;17.60;88.60
24326;DHT22;12448;45.532;5.290;2022-10-26T04:55:34;17.60;88.70
24326;DHT22;12448;45.532;5.290;2022-10-26T04:58:00;17.60;88.80
24326;DHT22;12448;45.532;5.290;2022-10-26T05:00:26;17.60;88.80
24326;DHT22;12448;45.532;5.290;2022-10-26T05:03:01;17.60;88.90
24326;DHT22;12448;45.532;5.290;2022-10-26T05:05:27;17.60;89.00
24326;DHT22;12448;45.532;5.290;2022-10-26T05:07:55;17.60;89.10
24326;DHT22;12448;45.532;5.290;2022-10-26T05:10:22;17.60;89.10
24326;DHT22;12448;45.532;5.290;2022-10-26T05:12:52;17.60;89.10
24326;DHT22;12448;45.532;5.290;2022-10-26T05:15:18;17.60;89.10
24326;DHT22;12448;45.532;5.290;2022-10-26T05:17:44;17.50;89.80
24326;DHT22;12448;45.532;5.290;2022-10-26T05:20:10;17.50;89.20
24326;DHT22;12448;45.532;5.290;2022-10-26T05:22:39;17.50;89.10
24326;DHT22;12448;45.532;5.290;2022-10-26T05:25:05;17.50;89.10
24326;DHT22;12448;45.532;5.290;2022-10-26T05:27:31;17.50;89.10
24326;DHT22;12448;45.532;5.290;2022-10-26T05:29:56;17.50;89.20
24326;DHT22;12448;45.532;5.290;2022-10-26T05:32:22;17.50;89.10
24326;DHT22;12448;45.532;5.290;2022-10-26T05:34:48;17.50;89.10
24326;DHT22;12448;45.532;5.290;2022-10-26T05:37:16;17.50;89.10
24326;DHT22;12448;45.532;5.290;2022-10-26T05:39:42;17.50;89.10
24326;DHT22;12448;45.532;5.290;2022-10-26T05:42:08;17.50;89.00
24326;DHT22;12448;45.532;5.290;2022-10-26T05:44:40;17.50;89.00
24326;DHT22;12448;45.532;5.290;2022-10-26T05:47:06;17.50;89.10
24326;DHT22;12448;45.532;5.290;2022-10-26T05:49:31;17.50;89.10
24326;DHT22;12448;45.532;5.290;2022-10-26T05:51:57;17.50;89.10
24326;DHT22;12448;45.532;5.290;2022-10-26T05:54:23;17.50;89.10
24326;DHT22;12448;45.532;5.290;2022-10-26T05:56:49;17.50;89.20
24326;DHT22;12448;45.532;5.290;2022-10-26T05:59:15;17.50;89.20
24326;DHT22;12448;45.532;5.290;2022-10-26T06:02:03;17.50;89.20
24326;DHT22;12448;45.532;5.290;2022-10-26T06:07:14;17.50;89.30
24326;DHT22;12448;45.532;5.290;2022-10-26T06:09:41;17.50;89.40
24326;DHT22;12448;45.532;5.290;2022-10-26T06:12:08;17.50;89.40
24326;DHT22;12448;45.532;5.290;2022-10-26T06:14:35;17.50;89.40
24326;DHT22;12448;45.532;5.290;2022-10-26T06:30:27;17.40;89.80
24326;DHT22;12448;45.532;5.290;2022-10-26T06:32:52;17.40;89.90
24326;DHT22;12448;45.532;5.290;2022-10-26T06:37:51;17.40;89.80
24326;DHT22;12448;45.532;5.290;2022-10-26T06:40:18;17.40;89.90
24326;DHT22;12448;45.532;5.290;2022-10-26T06:42:45;17.40;89.80
24326;DHT22;12448;45.532;5.290;2022-10-26T06:45:14;17.50;89.80
24326;DHT22;12448;45.532;5.290;2022-10-26T06:47:59;17.50;89.80
24326;DHT22;12448;45.532;5.290;2022-10-26T06:50:43;17.50;89.70
24326;DHT22;12448;45.532;5.290;2022-10-26T06:53:15;17.50;89.80
24326;DHT22;12448;45.532;5.290;2022-10-26T06:55:44;17.50;89.80
24326;DHT22;12448;45.532;5.290;2022-10-26T06:58:18;17.50;89.80
24326;DHT22;12448;45.532;5.290;2022-10-26T07:00:47;17.60;89.90
24326;DHT22;12448;45.532;5.290;2022-10-26T07:03:14;17.50;89.80
24326;DHT22;12448;45.532;5.290;2022-10-26T07:05:40;17.60;89.90
24326;DHT22;12448;45.532;5.290;2022-10-26T07:08:06;17.60;89.80
24326;DHT22;12448;45.532;5.290;2022-10-26T07:10:31;17.60;89.70
24326;DHT22;12448;45.532;5.290;2022-10-26T07:12:59;17.70;89.80
24326;DHT22;12448;45.532;5.290;2022-10-26T07:15:25;17.70;89.70
24326;DHT22;12448;45.532;5.290;2022-10-26T07:17:50;17.70;89.50
24326;DHT22;12448;45.532;5.290;2022-10-26T07:20:19;17.70;89.50
24326;DHT22;12448;45.532;5.290;2022-10-26T07:22:51;17.80;89.50
24326;DHT22;12448;45.532;5.290;2022-10-26T07:25:20;17.80;89.50
24326;DHT22;12448;45.532;5.290;2022-10-26T07:27:46;17.80;89.50
24326;DHT22;12448;45.532;5.290;2022-10-26T07:30:18;17.90;89.50
24326;DHT22;12448;45.532;5.290;2022-10-26T07:32:44;17.90;89.50
24326;DHT22;12448;45.532;5.290;2022-10-26T07:35:10;17.90;90.10
24326;DHT22;12448;45.532;5.290;2022-10-26T07:37:35;17.90;89.40
24326;DHT22;12448;45.532;5.290;2022-10-26T07:40:02;17.90;89.50
24326;DHT22;12448;45.532;5.290;2022-10-26T07:42:28;18.00;89.60
24326;DHT22;12448;45.532;5.290;2022-10-26T07:44:53;18.00;89.60
24326;DHT22;12448;45.532;5.290;2022-10-26T07:47:19;18.00;89.60
24326;DHT22;12448;45.532;5.290;2022-10-26T07:49:45;18.00;89.60
24326;DHT22;12448;45.532;5.290;2022-10-26T07:52:11;18.10;89.70
24326;DHT22;12448;45.532;5.290;2022-10-26T07:54:36;18.40;89.90
24326;DHT22;12448;45.532;5.290;2022-10-26T07:57:02;18.10;89.70
24326;DHT22;12448;45.532;5.290;2022-10-26T07:59:28;18.10;89.70
24326;DHT22;12448;45.532;5.290;2022-10-26T08:01:54;18.10;89.60
24326;DHT22;12448;45.532;5.290;2022-10-26T08:04:20;18.20;89.70
24326;DHT22;12448;45.532;5.290;2022-10-26T08:06:45;18.20;89.60
24326;DHT22;12448;45.532;5.290;2022-10-26T08:09:11;18.40;89.70
24326;DHT22;12448;45.532;5.290;2022-10-26T08:11:37;18.30;89.70
24326;DHT22;12448;45.532;5.290;2022-10-26T08:14:03;18.30;89.60
24326;DHT22;12448;45.532;5.290;2022-10-26T08:16:32;18.30;89.60
24326;DHT22;12448;45.532;5.290;2022-10-26T08:18:59;18.30;89.50
24326;DHT22;12448;45.532;5.290;2022-10-26T08:21:25;18.30;89.40
24326;DHT22;12448;45.532;5.290;2022-10-26T08:23:50;18.40;89.40
24326;DHT22;12448;45.532;5.290;2022-10-26T08:26:16;18.40;89.30
24326;DHT22;12448;45.532;5.290;2022-10-26T08:28:47;18.40;89.30
24326;DHT22;12448;45.532;5.290;2022-10-26T08:31:16;18.50;89.30
24326;DHT22;12448;45.532;5.290;2022-10-26T08:33:53;18.50;89.20
24326;DHT22;12448;45.532;5.290;2022-10-26T08:36:22;18.60;89.30
24326;DHT22;12448;45.532;5.290;2022-10-26T08:38:57;18.60;89.30
24326;DHT22;12448;45.532;5.290;2022-10-26T08:41:32;18.60;89.20
24326;DHT22;12448;45.532;5.290;2022-10-26T08:46:49;18.70;89.20
24326;DHT22;12448;45.532;5.290;2022-10-26T08:49:36;18.70;88.90
24326;DHT22;12448;45.532;5.290;2022-10-26T08:52:11;18.70;89.60
24326;DHT22;12448;45.532;5.290;2022-10-26T08:54:49;18.80;88.90
24326;DHT22;12448;45.532;5.290;2022-10-26T08:57:42;18.80;88.80
24326;DHT22;12448;45.532;5.290;2022-10-26T09:00:18;18.90;88.70
24326;DHT22;12448;45.532;5.290;2022-10-26T09:02:49;18.90;88.70
24326;DHT22;12448;45.532;5.290;2022-10-26T09:05:33;18.90;88.70
24326;DHT22;12448;45.532;5.290;2022-10-26T09:11:18;19.10;88.70
24326;DHT22;12448;45.532;5.290;2022-10-26T09:14:08;19.10;88.50
24326;DHT22;12448;45.532;5.290;2022-10-26T09:22:43;19.30;88.00
24326;DHT22;12448;45.532;5.290;2022-10-26T09:25:22;19.30;87.70
24326;DHT22;12448;45.532;5.290;2022-10-26T09:27:59;19.30;87.60
24326;DHT22;12448;45.532;5.290;2022-10-26T09:30:26;19.30;87.40
24326;DHT22;12448;45.532;5.290;2022-10-26T09:33:01;19.40;87.60
24326;DHT22;12448;45.532;5.290;2022-10-26T09:35:58;19.40;87.00
24326;DHT22;12448;45.532;5.290;2022-10-26T09:38:35;19.50;86.90
24326;DHT22;12448;45.532;5.290;2022-10-26T09:42:00;19.50;87.10
24326;DHT22;12448;45.532;5.290;2022-10-26T09:44:35;19.60;87.30
24326;DHT22;12448;45.532;5.290;2022-10-26T09:49:38;19.70;86.80
24326;DHT22;12448;45.532;5.290;2022-10-26T09:52:07;19.70;86.20
24326;DHT22;12448;45.532;5.290;2022-10-26T09:54:32;19.70;85.80
24326;DHT22;12448;45.532;5.290;2022-10-26T09:56:59;19.80;85.50
24326;DHT22;12448;45.532;5.290;2022-10-26T09:59:28;19.80;85.50
24326;DHT22;12448;45.532;5.290;2022-10-26T10:01:55;19.90;85.60
24326;DHT22;12448;45.532;5.290;2022-10-26T10:04:22;19.90;85.50
24326;DHT22;12448;45.532;5.290;2022-10-26T10:06:52;20.00;85.30
24326;DHT22;12448;45.532;5.290;2022-10-26T10:09:35;20.00;85.10
24326;DHT22;12448;45.532;5.290;2022-10-26T10:12:01;19.50;83.90
24326;DHT22;12448;45.532;5.290;2022-10-26T10:14:35;20.00;83.60
24326;DHT22;12448;45.532;5.290;2022-10-26T10:17:18;20.10;83.10
24326;DHT22;12448;45.532;5.290;2022-10-26T10:19:45;20.10;82.70
24326;DHT22;12448;45.532;5.290;2022-10-26T10:24:42;20.10;82.10
24326;DHT22;12448;45.532;5.290;2022-10-26T10:27:17;20.20;81.20
24326;DHT22;12448;45.532;5.290;2022-10-26T10:29:46;20.20;80.10
24326;DHT22;12448;45.532;5.290;2022-10-26T10:34:51;20.40;80.10
24326;DHT22;12448;45.532;5.290;2022-10-26T10:37:29;20.40;80.20
24326;DHT22;12448;45.532;5.290;2022-10-26T10:40:08;20.40;79.80
24326;DHT22;12448;45.532;5.290;2022-10-26T10:42:38;20.40;79.20
24326;DHT22;12448;45.532;5.290;2022-10-26T10:45:06;20.40;79.40
24326;DHT22;12448;45.532;5.290;2022-10-26T10:48:18;20.50;79.70
24326;DHT22;12448;45.532;5.290;2022-10-26T10:50:58;20.50;78.80
24326;DHT22;12448;45.532;5.290;2022-10-26T10:53:43;20.50;77.80
24326;DHT22;12448;45.532;5.290;2022-10-26T10:56:40;20.50;77.80
24326;DHT22;12448;45.532;5.290;2022-10-26T11:02:00;20.60;78.10
24326;DHT22;12448;45.532;5.290;2022-10-26T11:07:49;20.80;74.80
24326;DHT22;12448;45.532;5.290;2022-10-26T11:10:18;20.80;76.60
24326;DHT22;12448;45.532;5.290;2022-10-26T11:13:01;20.80;76.20
24326;DHT22;12448;45.532;5.290;2022-10-26T11:15:32;20.80;76.20
24326;DHT22;12448;45.532;5.290;2022-10-26T11:20:43;20.80;75.40
24326;DHT22;12448;45.532;5.290;2022-10-26T11:23:21;20.80;75.40
24326;DHT22;12448;45.532;5.290;2022-10-26T11:26:34;20.90;73.70
24326;DHT22;12448;45.532;5.290;2022-10-26T11:28:56;20.90;74.50
24326;DHT22;12448;45.532;5.290;2022-10-26T11:31:29;21.00;73.70
24326;DHT22;12448;45.532;5.290;2022-10-26T11:36:33;21.10;74.30
24326;DHT22;12448;45.532;5.290;2022-10-26T11:41:55;21.10;72.00
24326;DHT22;12448;45.532;5.290;2022-10-26T11:44:37;21.20;71.60
24326;DHT22;12448;45.532;5.290;2022-10-26T11:47:34;21.20;72.30
24326;DHT22;12448;45.532;5.290;2022-10-26T11:52:47;21.40;72.60
24326;DHT22;12448;45.532;5.290;2022-10-26T11:55:17;21.20;73.50
24326;DHT22;12448;45.532;5.290;2022-10-26T11:57:45;21.30;73.20
24326;DHT22;12448;45.532;5.290;2022-10-26T12:00:18;21.30;72.80
24326;DHT22;12448;45.532;5.290;2022-10-26T12:05:26;21.40;72.20
24326;DHT22;12448;45.532;5.290;2022-10-26T12:08:45;21.40;72.10
24326;DHT22;12448;45.532;5.290;2022-10-26T12:14:45;21.50;71.30
24326;DHT22;12448;45.532;5.290;2022-10-26T12:22:55;21.60;72.50
24326;DHT22;12448;45.532;5.290;2022-10-26T12:25:21;21.60;72.90
24326;DHT22;12448;45.532;5.290;2022-10-26T12:30:23;21.60;72.30
24326;DHT22;12448;45.532;5.290;2022-10-26T12:33:01;21.70;71.40
24326;DHT22;12448;45.532;5.290;2022-10-26T12:35:35;21.70;71.40
24326;DHT22;12448;45.532;5.290;2022-10-26T12:43:36;21.80;71.80
24326;DHT22;12448;45.532;5.290;2022-10-26T12:48:48;21.80;71.00
24326;DHT22;12448;45.532;5.290;2022-10-26T12:54:39;21.80;71.20
24326;DHT22;12448;45.532;5.290;2022-10-26T13:00:22;21.80;70.80
24326;DHT22;12448;45.532;5.290;2022-10-26T13:08:49;21.90;70.50
24326;DHT22;12448;45.532;5.290;2022-10-26T13:11:32;21.90;70.80
24326;DHT22;12448;45.532;5.290;2022-10-26T13:14:00;21.90;71.00
24326;DHT22;12448;45.532;5.290;2022-10-26T13:16:27;21.90;71.40
24326;DHT22;12448;45.532;5.290;2022-10-26T13:18:55;21.90;72.40
24326;DHT22;12448;45.532;5.290;2022-10-26T13:21:22;21.90;71.40
24326;DHT22;12448;45.532;5.290;2022-10-26T13:23:58;22.00;68.90
24326;DHT22;12448;45.532;5.290;2022-10-26T13:26:31;22.00;68.90
24326;DHT22;12448;45.532;5.290;2022-10-26T13:28:59;22.00;68.70
24326;DHT22;12448;45.532;5.290;2022-10-26T13:33:58;22.00;69.60
24326;DHT22;12448;45.532;5.290;2022-10-26T13:36:33;22.10;69.90
24326;DHT22;12448;45.532;5.290;2022-10-26T13:39:08;22.10;69.80
24326;DHT22;12448;45.532;5.290;2022-10-26T13:41:46;22.10;70.00
24326;DHT22;12448;45.532;5.290;2022-10-26T13:47:31;22.20;71.00
24326;DHT22;12448;45.532;5.290;2022-10-26T13:50:04;22.20;71.50
24326;DHT22;12448;45.532;5.290;2022-10-26T13:52:38;22.40;72.00
24326;DHT22;12448;45.532;5.290;2022-10-26T13:55:35;21.80;71.50
24326;DHT22;12448;45.532;5.290;2022-10-26T14:03:35;22.20;71.80
24326;DHT22;12448;45.532;5.290;2022-10-26T14:08:32;22.20;72.00
24326;DHT22;12448;45.532;5.290;2022-10-26T14:10:58;22.20;72.00
24326;DHT22;12448;45.532;5.290;2022-10-26T14:13:26;22.20;72.00
24326;DHT22;12448;45.532;5.290;2022-10-26T14:15:59;22.20;72.00
24326;DHT22;12448;45.532;5.290;2022-10-26T14:18:29;22.20;71.80
24326;DHT22;12448;45.532;5.290;2022-10-26T14:20:59;22.40;71.30
24326;DHT22;12448;45.532;5.290;2022-10-26T14:26:00;22.30;71.40
24326;DHT22;12448;45.532;5.290;2022-10-26T14:28:29;22.20;71.00
24326;DHT22;12448;45.532;5.290;2022-10-26T14:31:12;22.20;69.30
24326;DHT22;12448;45.532;5.290;2022-10-26T14:33:38;22.20;69.40
24326;DHT22;12448;45.532;5.290;2022-10-26T14:36:06;22.20;70.10
24326;DHT22;12448;45.532;5.290;2022-10-26T14:38:40;22.10;68.40
24326;DHT22;12448;45.532;5.290;2022-10-26T14:41:07;22.10;69.10
24326;DHT22;12448;45.532;5.290;2022-10-26T14:43:33;22.10;68.90
24326;DHT22;12448;45.532;5.290;2022-10-26T14:45:59;22.00;68.70
24326;DHT22;12448;45.532;5.290;2022-10-26T14:48:33;22.00;68.80
24326;DHT22;12448;45.532;5.290;2022-10-26T14:51:20;22.00;68.70
24326;DHT22;12448;45.532;5.290;2022-10-26T14:53:51;22.00;69.20
24326;DHT22;12448;45.532;5.290;2022-10-26T14:58:48;21.90;68.90
24326;DHT22;12448;45.532;5.290;2022-10-26T15:03:53;22.00;69.70
24326;DHT22;12448;45.532;5.290;2022-10-26T15:06:29;21.90;69.90
24326;DHT22;12448;45.532;5.290;2022-10-26T15:08:59;21.90;70.10
24326;DHT22;12448;45.532;5.290;2022-10-26T15:11:26;21.90;70.50
24326;DHT22;12448;45.532;5.290;2022-10-26T15:13:59;21.90;70.60
24326;DHT22;12448;45.532;5.290;2022-10-26T15:16:37;21.80;71.00
24326;DHT22;12448;45.532;5.290;2022-10-26T15:19:09;21.70;70.30
24326;DHT22;12448;45.532;5.290;2022-10-26T15:21:47;21.70;69.10
24326;DHT22;12448;45.532;5.290;2022-10-26T15:26:56;21.60;69.60
24326;DHT22;12448;45.532;5.290;2022-10-26T15:29:44;21.60;70.20
24326;DHT22;12448;45.532;5.290;2022-10-26T15:32:20;21.60;71.30
24326;DHT22;12448;45.532;5.290;2022-10-26T15:37:45;21.50;71.80
24326;DHT22;12448;45.532;5.290;2022-10-26T15:40:12;21.40;72.20
24326;DHT22;12448;45.532;5.290;2022-10-26T15:42:40;21.30;72.60
24326;DHT22;12448;45.532;5.290;2022-10-26T15:45:22;21.30;72.80
24326;DHT22;12448;45.532;5.290;2022-10-26T15:47:50;21.30;72.70
24326;DHT22;12448;45.532;5.290;2022-10-26T15:50:21;21.20;73.10
24326;DHT22;12448;45.532;5.290;2022-10-26T15:52:48;21.20;73.50
24326;DHT22;12448;45.532;5.290;2022-10-26T15:55:15;21.10;74.00
24326;DHT22;12448;45.532;5.290;2022-10-26T15:57:42;21.10;74.60
24326;DHT22;12448;45.532;5.290;2022-10-26T16:00:14;21.10;75.20
24326;DHT22;12448;45.532;5.290;2022-10-26T16:02:42;21.10;75.90
24326;DHT22;12448;45.532;5.290;2022-10-26T16:05:14;21.10;76.50
24326;DHT22;12448;45.532;5.290;2022-10-26T16:07:42;21.00;77.00
24326;DHT22;12448;45.532;5.290;2022-10-26T16:10:19;21.00;77.50
24326;DHT22;12448;45.532;5.290;2022-10-26T16:12:46;21.00;78.00
24326;DHT22;12448;45.532;5.290;2022-10-26T16:15:22;21.00;78.20
24326;DHT22;12448;45.532;5.290;2022-10-26T16:17:49;21.00;78.70
24326;DHT22;12448;45.532;5.290;2022-10-26T16:20:21;20.90;79.20
24326;DHT22;12448;45.532;5.290;2022-10-26T16:22:52;20.90;79.70
24326;DHT22;12448;45.532;5.290;2022-10-26T16:25:23;20.80;80.00
24326;DHT22;12448;45.532;5.290;2022-10-26T16:27:51;20.90;80.30
24326;DHT22;12448;45.532;5.290;2022-10-26T16:30:18;20.80;80.40
24326;DHT22;12448;45.532;5.290;2022-10-26T16:32:44;20.70;80.60
24326;DHT22;12448;45.532;5.290;2022-10-26T16:35:11;20.70;80.90
24326;DHT22;12448;45.532;5.290;2022-10-26T16:37:37;20.70;81.10
24326;DHT22;12448;45.532;5.290;2022-10-26T16:40:04;20.60;81.20
24326;DHT22;12448;45.532;5.290;2022-10-26T16:42:31;20.60;81.00
24326;DHT22;12448;45.532;5.290;2022-10-26T16:44:57;20.60;80.80
24326;DHT22;12448;45.532;5.290;2022-10-26T16:47:24;20.50;80.70
24326;DHT22;12448;45.532;5.290;2022-10-26T16:49:50;20.50;80.70
24326;DHT22;12448;45.532;5.290;2022-10-26T16:52:16;20.50;80.60
24326;DHT22;12448;45.532;5.290;2022-10-26T16:54:42;20.50;80.60
24326;DHT22;12448;45.532;5.290;2022-10-26T16:57:08;20.50;80.80
24326;DHT22;12448;45.532;5.290;2022-10-26T16:59:35;20.50;80.90
24326;DHT22;12448;45.532;5.290;2022-10-26T17:02:01;20.40;80.70
24326;DHT22;12448;45.532;5.290;2022-10-26T17:04:27;20.40;80.40
24326;DHT22;12448;45.532;5.290;2022-10-26T17:06:53;20.40;80.40
24326;DHT22;12448;45.532;5.290;2022-10-26T17:09:19;20.40;80.10
24326;DHT22;12448;45.532;5.290;2022-10-26T17:11:45;20.40;79.80
24326;DHT22;12448;45.532;5.290;2022-10-26T17:14:11;20.40;79.60
24326;DHT22;12448;45.532;5.290;2022-10-26T17:16:37;20.40;79.40
24326;DHT22;12448;45.532;5.290;2022-10-26T17:19:03;20.40;79.20
24326;DHT22;12448;45.532;5.290;2022-10-26T17:21:31;20.30;78.90
24326;DHT22;12448;45.532;5.290;2022-10-26T17:23:57;20.30;78.90
24326;DHT22;12448;45.532;5.290;2022-10-26T17:26:23;20.30;79.40
24326;DHT22;12448;45.532;5.290;2022-10-26T17:28:53;20.30;78.40
24326;DHT22;12448;45.532;5.290;2022-10-26T17:31:21;20.20;78.30
24326;DHT22;12448;45.532;5.290;2022-10-26T17:33:47;20.20;78.40
24326;DHT22;12448;45.532;5.290;2022-10-26T17:36:18;20.20;78.70
24326;DHT22;12448;45.532;5.290;2022-10-26T17:38:50;20.20;79.20
24326;DHT22;12448;45.532;5.290;2022-10-26T17:41:17;20.10;79.40
24326;DHT22;12448;45.532;5.290;2022-10-26T17:43:44;20.20;79.70
24326;DHT22;12448;45.532;5.290;2022-10-26T17:46:18;20.10;80.00
24326;DHT22;12448;45.532;5.290;2022-10-26T17:48:44;20.10;80.40
24326;DHT22;12448;45.532;5.290;2022-10-26T17:51:18;20.10;80.60
24326;DHT22;12448;45.532;5.290;2022-10-26T17:53:48;20.10;80.60
24326;DHT22;12448;45.532;5.290;2022-10-26T17:58:44;20.10;80.10
24326;DHT22;12448;45.532;5.290;2022-10-26T18:01:11;20.10;79.80
24326;DHT22;12448;45.532;5.290;2022-10-26T18:03:38;20.10;79.60
24326;DHT22;12448;45.532;5.290;2022-10-26T18:06:06;20.10;79.40
24326;DHT22;12448;45.532;5.290;2022-10-26T18:08:36;20.10;79.10
24326;DHT22;12448;45.532;5.290;2022-10-26T18:11:03;20.10;78.80
24326;DHT22;12448;45.532;5.290;2022-10-26T18:13:30;20.10;78.60
24326;DHT22;12448;45.532;5.290;2022-10-26T18:16:05;20.10;78.60
24326;DHT22;12448;45.532;5.290;2022-10-26T18:18:31;20.10;78.50
24326;DHT22;12448;45.532;5.290;2022-10-26T18:21:05;20.10;78.60